Time;durP1;ratioP1;P1;durP2;ratioP2;P2;SDS_P1;SDS_P2;PMS_P1;PMS_P2;Temp;Humidity;BMP_temperature;BMP_pressure;BME280_temperature;BME280_humidity;BME280_pressure;Samples;Min_cycle;Max_cycle;Signal;HPM_P1;HPM_P2
2021/10/18 00:02:20;;;;;;;5.80;3.57;;;7.90;99.90;;;;;;5249793;28;20630;-65
2021/10/18 00:04:54;;;;;;;6.50;2.60;;;7.90;99.90;;;;;;5250369;28;20231;-65
2021/10/18 00:07:26;;;;;;;4.50;2.67;;;7.80;99.90;;;;;;5249810;28;20234;-65
2021/10/18 00:09:58;;;;;;;6.13;2.80;;;7.70;99.90;;;;;;5249833;28;20243;-68
2021/10/18 00:12:33;;;;;;;6.63;3.10;;;7.60;99.90;;;;;;5249403;28;20243;-68
2021/10/18 00:15:07;;;;;;;7.63;3.33;;;7.50;99.90;;;;;;5249960;28;20188;-67
2021/10/18 00:17:39;;;;;;;8.70;3.13;;;7.40;99.90;;;;;;5249653;28;20233;-65
2021/10/18 00:20:14;;;;;;;4.93;3.13;;;7.40;99.90;;;;;;5249904;28;20239;-65
2021/10/18 00:22:46;;;;;;;5.17;2.90;;;7.30;99.90;;;;;;5248737;28;20727;-66
2021/10/18 00:25:19;;;;;;;5.33;3.13;;;7.20;99.90;;;;;;5250165;28;20507;-71
2021/10/18 00:27:54;;;;;;;4.23;2.70;;;7.20;99.90;;;;;;5250058;28;20204;-68
2021/10/18 00:30:28;;;;;;;6.50;2.23;;;7.10;99.90;;;;;;5249964;28;20208;-67
2021/10/18 00:33:00;;;;;;;4.90;2.57;;;7.00;99.90;;;;;;5249459;28;20199;-67
2021/10/18 00:35:33;;;;;;;3.37;2.40;;;6.90;99.90;;;;;;5250067;28;20216;-63
2021/10/18 00:38:05;;;;;;;5.83;2.53;;;6.90;99.90;;;;;;5249514;28;20197;-68
2021/10/18 00:40:37;;;;;;;7.57;2.67;;;6.80;99.90;;;;;;5249657;28;20197;-68
2021/10/18 00:43:10;;;;;;;5.23;2.60;;;6.80;99.90;;;;;;5249981;28;20215;-65
2021/10/18 00:45:42;;;;;;;4.97;2.27;;;6.70;99.90;;;;;;5249203;28;20189;-68
2021/10/18 00:48:16;;;;;;;5.77;2.80;;;6.70;99.90;;;;;;5249297;28;20235;-66
2021/10/18 00:50:51;;;;;;;4.23;2.57;;;6.60;99.90;;;;;;5253262;28;20304;-66
2021/10/18 00:53:25;;;;;;;4.13;2.23;;;6.60;99.90;;;;;;5236797;28;20211;-64
2021/10/18 00:55:58;;;;;;;5.23;2.33;;;6.60;99.90;;;;;;5254517;28;20204;-66
2021/10/18 00:58:30;;;;;;;5.93;2.87;;;6.50;99.90;;;;;;5252608;28;20326;-64
2021/10/18 01:01:02;;;;;;;7.23;3.17;;;6.50;99.90;;;;;;5252883;28;20764;-65
2021/10/18 01:03:36;;;;;;;6.93;2.70;;;6.50;99.90;;;;;;5254116;28;20204;-63
2021/10/18 01:06:08;;;;;;;8.17;2.87;;;6.60;99.90;;;;;;5253715;28;20196;-66
2021/10/18 01:08:42;;;;;;;4.77;2.97;;;6.50;99.90;;;;;;5253438;28;20532;-67
2021/10/18 01:11:14;;;;;;;4.90;2.43;;;6.40;99.90;;;;;;5253917;28;20629;-67
2021/10/18 01:13:46;;;;;;;5.67;2.20;;;6.40;99.90;;;;;;5253821;28;20517;-65
2021/10/18 01:16:18;;;;;;;6.27;2.80;;;6.40;99.90;;;;;;5253848;28;20223;-66
2021/10/18 01:18:51;;;;;;;6.90;3.10;;;6.40;99.90;;;;;;5253182;28;20231;-64
2021/10/18 01:21:25;;;;;;;7.33;2.97;;;6.40;99.90;;;;;;5253524;28;20196;-64
2021/10/18 01:23:57;;;;;;;10.67;3.03;;;6.40;99.90;;;;;;5253670;28;20531;-66
2021/10/18 01:26:29;;;;;;;6.47;2.90;;;6.40;99.90;;;;;;5252923;28;20470;-65
2021/10/18 01:29:02;;;;;;;7.37;2.70;;;6.30;99.90;;;;;;5252990;28;20211;-71
2021/10/18 01:31:34;;;;;;;5.23;3.07;;;6.30;99.90;;;;;;5253240;28;20239;-66
2021/10/18 01:34:07;;;;;;;5.93;3.10;;;6.30;99.90;;;;;;5253304;28;20521;-68
2021/10/18 01:36:42;;;;;;;5.93;2.83;;;6.30;99.90;;;;;;5253539;28;20640;-64
2021/10/18 01:39:14;;;;;;;10.03;3.10;;;6.30;99.90;;;;;;5253525;28;20642;-67
2021/10/18 01:41:46;;;;;;;7.40;3.50;;;6.30;99.90;;;;;;5252668;28;20231;-66
2021/10/18 01:44:19;;;;;;;5.93;2.77;;;6.30;99.90;;;;;;5253645;28;20219;-67
2021/10/18 01:46:51;;;;;;;5.57;3.10;;;6.20;99.90;;;;;;5252701;28;20593;-65
2021/10/18 01:49:26;;;;;;;6.07;3.20;;;6.20;99.90;;;;;;5252959;28;20556;-64
2021/10/18 01:51:58;;;;;;;4.27;3.10;;;6.20;99.90;;;;;;5252777;28;20232;-66
2021/10/18 01:54:32;;;;;;;6.13;3.40;;;6.10;99.90;;;;;;5254090;28;20201;-64
2021/10/18 01:57:04;;;;;;;6.27;3.27;;;6.10;99.90;;;;;;5253630;28;20255;-64
2021/10/18 01:59:36;;;;;;;7.47;2.80;;;6.10;99.90;;;;;;5254588;28;20249;-66
2021/10/18 02:02:08;;;;;;;6.70;2.80;;;6.00;99.90;;;;;;5252803;28;20235;-62
2021/10/18 02:04:58;;;;;;;8.13;2.90;;;6.00;99.90;;;;;;5253586;28;20185;-63
2021/10/18 02:07:33;;;;;;;7.10;3.33;;;6.00;99.90;;;;;;5253325;28;20235;-65
2021/10/18 02:10:05;;;;;;;5.57;3.17;;;6.00;99.90;;;;;;5253579;28;20237;-64
2021/10/18 02:12:38;;;;;;;8.70;3.10;;;6.00;99.90;;;;;;5252580;28;20259;-65
2021/10/18 02:15:11;;;;;;;8.40;3.30;;;6.00;99.90;;;;;;5253075;28;20215;-65
2021/10/18 02:17:44;;;;;;;5.57;3.23;;;6.00;99.90;;;;;;5252977;28;20243;-67
2021/10/18 02:20:16;;;;;;;6.60;3.23;;;6.00;99.90;;;;;;5252811;28;20235;-65
2021/10/18 02:22:50;;;;;;;6.00;3.73;;;6.00;99.90;;;;;;5252877;28;20646;-65
2021/10/18 02:25:22;;;;;;;7.13;3.73;;;6.00;99.90;;;;;;5252290;28;20210;-63
2021/10/18 02:27:54;;;;;;;8.77;3.53;;;5.90;99.90;;;;;;5251994;28;20224;-65
2021/10/18 02:30:28;;;;;;;8.70;4.47;;;6.00;99.90;;;;;;5252532;28;20227;-69
2021/10/18 02:33:00;;;;;;;12.03;4.60;;;5.90;99.90;;;;;;5252154;28;20232;-67
2021/10/18 02:35:32;;;;;;;7.27;3.43;;;6.00;99.90;;;;;;5251296;28;20234;-65
2021/10/18 02:38:04;;;;;;;6.33;3.40;;;5.90;99.90;;;;;;5251860;28;20228;-66
2021/10/18 02:40:36;;;;;;;7.43;3.73;;;5.90;99.90;;;;;;5250982;28;20229;-65
2021/10/18 02:43:11;;;;;;;6.77;3.43;;;6.00;99.90;;;;;;5251610;28;20315;-63
2021/10/18 02:45:43;;;;;;;10.37;4.13;;;6.00;99.90;;;;;;5251151;28;20295;-63
2021/10/18 02:48:15;;;;;;;9.27;4.00;;;6.00;99.90;;;;;;5251745;28;20228;-64
2021/10/18 02:50:47;;;;;;;5.93;3.97;;;5.90;99.90;;;;;;5252007;28;20545;-64
2021/10/18 02:53:23;;;;;;;5.53;3.80;;;5.90;99.90;;;;;;5252105;28;20616;-66
2021/10/18 02:55:56;;;;;;;5.00;3.40;;;5.90;99.90;;;;;;5252176;28;20265;-66
2021/10/18 02:58:28;;;;;;;5.47;3.73;;;5.80;99.90;;;;;;5251807;28;20251;-66
2021/10/18 03:01:01;;;;;;;8.40;3.70;;;5.80;99.90;;;;;;5251525;28;20211;-67
2021/10/18 03:03:33;;;;;;;8.30;3.53;;;5.80;99.90;;;;;;5251239;28;20232;-67
2021/10/18 03:06:05;;;;;;;6.23;3.70;;;5.80;99.90;;;;;;5251304;28;20197;-66
2021/10/18 03:08:37;;;;;;;11.00;4.00;;;5.80;99.90;;;;;;5250337;28;20664;-64
2021/10/18 03:11:14;;;;;;;9.27;3.77;;;5.80;99.90;;;;;;5250819;28;20211;-68
2021/10/18 03:13:47;;;;;;;7.53;3.73;;;5.70;99.90;;;;;;5250843;28;20644;-63
2021/10/18 03:16:19;;;;;;;9.20;4.13;;;5.70;99.90;;;;;;5251018;28;20205;-67
2021/10/18 03:18:51;;;;;;;9.40;3.93;;;5.70;99.90;;;;;;5251860;28;20315;-64
2021/10/18 03:21:23;;;;;;;8.53;4.67;;;5.70;99.90;;;;;;5251310;28;20207;-69
2021/10/18 03:23:55;;;;;;;6.83;4.37;;;5.60;99.90;;;;;;5252064;28;20556;-69
2021/10/18 03:26:28;;;;;;;11.23;5.37;;;5.60;99.90;;;;;;5250356;28;20197;-67
2021/10/18 03:29:00;;;;;;;11.83;5.07;;;5.60;99.90;;;;;;5251185;28;20247;-68
2021/10/18 03:31:34;;;;;;;12.33;5.00;;;5.60;99.90;;;;;;5251317;28;20248;-69
2021/10/18 03:34:07;;;;;;;8.27;4.70;;;5.60;99.90;;;;;;5250831;28;20243;-63
2021/10/18 03:36:38;;;;;;;9.27;5.10;;;5.50;99.90;;;;;;5233666;28;20208;-67
2021/10/18 03:39:11;;;;;;;15.37;6.23;;;5.50;99.90;;;;;;5250523;28;20239;-65
2021/10/18 03:41:43;;;;;;;12.93;6.27;;;5.50;99.90;;;;;;5249759;28;20185;-67
2021/10/18 03:44:15;;;;;;;10.47;6.10;;;5.50;99.90;;;;;;5250508;28;20201;-64
2021/10/18 03:46:47;;;;;;;10.67;6.00;;;5.50;99.90;;;;;;5251075;28;20207;-70
2021/10/18 03:49:19;;;;;;;15.07;6.67;;;5.50;99.90;;;;;;5249397;28;20226;-69
2021/10/18 03:51:51;;;;;;;12.23;6.33;;;5.50;99.90;;;;;;5250594;28;20185;-66
2021/10/18 03:54:23;;;;;;;12.03;6.53;;;5.50;99.90;;;;;;5250010;28;20200;-66
2021/10/18 03:56:56;;;;;;;13.03;6.57;;;5.50;99.90;;;;;;5250762;28;20185;-66
2021/10/18 03:59:30;;;;;;;14.00;7.03;;;5.40;99.90;;;;;;5250468;28;20312;-63
2021/10/18 04:02:04;;;;;;;17.93;7.80;;;5.40;99.90;;;;;;5250163;28;20211;-66
2021/10/18 04:04:37;;;;;;;13.27;7.40;;;5.40;99.90;;;;;;5249826;28;20298;-66
2021/10/18 04:07:09;;;;;;;12.70;7.60;;;5.40;99.90;;;;;;5250421;28;20256;-62
2021/10/18 04:09:41;;;;;;;18.80;8.67;;;5.40;99.90;;;;;;5250092;28;20275;-65
2021/10/18 04:12:13;;;;;;;15.93;8.40;;;5.40;99.90;;;;;;5249017;28;20201;-65
2021/10/18 04:14:45;;;;;;;14.47;7.80;;;5.40;99.90;;;;;;5249893;28;20227;-67
2021/10/18 04:17:17;;;;;;;17.67;8.63;;;5.30;99.90;;;;;;5249536;28;20553;-63
2021/10/18 04:19:51;;;;;;;13.27;7.60;;;5.40;99.90;;;;;;5249547;28;20600;-68
2021/10/18 04:22:24;;;;;;;18.07;9.20;;;5.40;99.90;;;;;;5250524;28;20208;-66
2021/10/18 04:24:56;;;;;;;16.57;8.63;;;5.40;99.90;;;;;;5250199;28;20634;-71
2021/10/18 04:27:30;;;;;;;15.10;9.10;;;5.40;99.90;;;;;;5250249;28;20213;-61
2021/10/18 04:30:03;;;;;;;16.53;9.57;;;5.30;99.90;;;;;;5249795;28;20522;-64
2021/10/18 04:32:35;;;;;;;20.33;8.83;;;5.30;99.90;;;;;;5249790;28;20235;-64
2021/10/18 04:35:07;;;;;;;18.90;9.10;;;5.30;99.90;;;;;;5249093;28;20592;-67
2021/10/18 04:37:39;;;;;;;15.47;8.30;;;5.30;99.90;;;;;;5249710;28;20228;-64
2021/10/18 04:40:12;;;;;;;14.57;8.67;;;5.30;99.90;;;;;;5250513;28;20236;-65
2021/10/18 04:42:44;;;;;;;17.60;9.20;;;5.30;99.90;;;;;;5250216;28;20201;-63
2021/10/18 04:45:18;;;;;;;16.53;8.90;;;5.30;99.90;;;;;;5251174;28;20287;-68
2021/10/18 04:47:51;;;;;;;18.73;9.10;;;5.20;99.90;;;;;;5251358;28;20236;-66
2021/10/18 04:50:25;;;;;;;16.10;9.20;;;5.20;99.90;;;;;;5250367;28;20231;-69
2021/10/18 04:52:57;;;;;;;14.63;8.57;;;5.20;99.90;;;;;;5250376;28;20224;-66
2021/10/18 04:55:31;;;;;;;14.43;8.50;;;5.20;99.90;;;;;;5250778;28;20217;-69
2021/10/18 04:58:07;;;;;;;16.20;8.40;;;5.10;99.90;;;;;;5249635;28;20224;-68
2021/10/18 05:00:43;;;;;;;14.77;8.63;;;5.10;99.90;;;;;;5250374;28;20335;-65
2021/10/18 05:03:18;;;;;;;16.67;8.53;;;5.00;99.90;;;;;;5249495;28;20302;-66
2021/10/18 05:05:53;;;;;;;14.13;9.17;;;5.00;99.90;;;;;;5249577;28;20214;-66
2021/10/18 05:08:36;;;;;;;15.20;8.60;;;5.00;99.90;;;;;;5249388;28;20315;-67
2021/10/18 05:11:08;;;;;;;18.13;9.50;;;5.00;99.90;;;;;;5282180;28;20314;-65
2021/10/18 05:13:43;;;;;;;16.30;9.67;;;5.00;99.90;;;;;;5249834;28;20232;-64
2021/10/18 05:16:16;;;;;;;20.23;9.90;;;5.00;99.90;;;;;;5249762;28;20200;-66
2021/10/18 05:18:48;;;;;;;20.13;9.83;;;5.10;99.90;;;;;;5249886;28;20277;-67
2021/10/18 05:21:20;;;;;;;20.63;8.90;;;5.00;99.90;;;;;;5250796;28;20535;-66
2021/10/18 05:23:52;;;;;;;17.37;9.80;;;5.00;99.90;;;;;;5249734;28;20581;-63
2021/10/18 05:26:25;;;;;;;15.87;9.20;;;5.00;99.90;;;;;;5249562;28;20196;-66
2021/10/18 05:28:57;;;;;;;20.90;10.10;;;5.00;99.90;;;;;;5249272;28;20229;-68
2021/10/18 05:31:30;;;;;;;20.93;10.40;;;5.00;99.90;;;;;;5249010;28;20300;-65
2021/10/18 05:34:02;;;;;;;21.73;10.33;;;5.00;99.90;;;;;;5248086;28;20260;-66
2021/10/18 05:36:34;;;;;;;18.97;10.73;;;5.00;99.90;;;;;;5251456;28;20205;-67
2021/10/18 05:39:06;;;;;;;18.53;11.33;;;5.00;99.90;;;;;;5253180;28;20228;-64
2021/10/18 05:41:38;;;;;;;21.37;10.37;;;5.00;99.90;;;;;;5252307;28;20244;-67
2021/10/18 05:44:12;;;;;;;18.97;10.00;;;5.00;99.90;;;;;;5252586;28;20235;-69
2021/10/18 05:46:44;;;;;;;17.67;10.13;;;5.00;99.90;;;;;;5252921;28;20204;-67
2021/10/18 05:49:16;;;;;;;21.77;11.20;;;5.00;99.90;;;;;;5249826;28;20232;-67
2021/10/18 05:51:49;;;;;;;18.30;10.73;;;5.10;99.90;;;;;;5251407;28;20204;-68
2021/10/18 05:54:21;;;;;;;20.50;10.80;;;5.10;99.90;;;;;;5251994;28;20220;-66
2021/10/18 05:56:53;;;;;;;21.60;11.17;;;5.20;99.90;;;;;;5250005;28;20201;-68
2021/10/18 05:59:25;;;;;;;18.97;11.17;;;5.20;99.90;;;;;;5251344;28;20229;-67
2021/10/18 06:01:57;;;;;;;21.37;11.47;;;5.40;99.90;;;;;;5252599;28;20215;-65
2021/10/18 06:04:29;;;;;;;28.27;13.10;;;5.90;99.90;;;;;;5251459;28;20692;-66
2021/10/18 06:07:01;;;;;;;26.53;13.40;;;6.60;99.90;;;;;;5251642;28;20193;-71
2021/10/18 06:09:33;;;;;;;24.83;13.13;;;7.70;99.90;;;;;;5252961;28;20225;-65
2021/10/18 06:12:05;;;;;;;18.67;10.00;;;8.80;99.90;;;;;;5253471;28;20284;-68
2021/10/18 06:14:37;;;;;;;13.17;8.50;;;9.40;99.90;;;;;;5252830;28;20221;-69
2021/10/18 06:17:09;;;;;;;14.47;6.10;;;10.20;99.90;;;;;;5252748;28;20280;-70
2021/10/18 06:19:41;;;;;;;9.60;5.43;;;11.20;99.90;;;;;;5252603;28;20221;-68
2021/10/18 06:22:13;;;;;;;8.10;4.67;;;12.00;99.90;;;;;;5252080;28;20347;-68
2021/10/18 06:24:46;;;;;;;8.53;5.00;;;12.60;99.90;;;;;;5252652;28;20267;-67
2021/10/18 06:27:18;;;;;;;8.40;4.80;;;13.40;99.90;;;;;;5252991;28;20621;-70
2021/10/18 06:29:51;;;;;;;10.00;5.40;;;14.00;99.90;;;;;;5253575;28;20638;-70
2021/10/18 06:32:25;;;;;;;9.70;5.40;;;14.40;99.90;;;;;;5252794;28;20205;-69
2021/10/18 06:34:59;;;;;;;10.13;5.30;;;14.70;99.90;;;;;;5252900;28;20530;-66
2021/10/18 06:37:33;;;;;;;7.90;4.70;;;14.80;99.90;;;;;;5252384;28;20241;-66
2021/10/18 06:40:05;;;;;;;10.52;5.03;;;15.20;99.90;;;;;;5251203;28;20229;-65
2021/10/18 06:42:38;;;;;;;9.90;5.10;;;15.40;99.90;;;;;;5251727;28;20197;-68
2021/10/18 06:45:10;;;;;;;11.30;5.23;;;15.50;99.90;;;;;;5252625;28;20208;-70
2021/10/18 06:47:42;;;;;;;10.53;5.70;;;15.40;99.90;;;;;;5250842;28;20205;-66
2021/10/18 06:50:15;;;;;;;7.17;4.93;;;15.40;99.90;;;;;;5254075;28;20196;-64
2021/10/18 06:52:47;;;;;;;15.23;5.73;;;15.20;99.90;;;;;;5252920;28;20233;-69
2021/10/18 06:55:21;;;;;;;12.47;5.97;;;15.00;99.90;;;;;;5253639;28;20212;-66
2021/10/18 06:57:55;;;;;;;12.73;7.30;;;14.60;99.90;;;;;;5252990;28;20205;-66
2021/10/18 07:00:28;;;;;;;9.80;6.70;;;14.10;99.90;;;;;;5250960;28;20219;-68
2021/10/18 07:03:02;;;;;;;12.60;6.60;;;13.40;99.90;;;;;;5251463;28;20220;-69
2021/10/18 07:05:40;;;;;;;13.33;6.90;;;12.80;99.90;;;;;;5254180;28;20203;-70
2021/10/18 07:08:12;;;;;;;12.30;6.47;;;12.10;99.90;;;;;;5252635;28;20715;-72
2021/10/18 07:10:44;;;;;;;12.30;7.03;;;11.50;99.90;;;;;;5265521;28;20307;-68
2021/10/18 07:13:16;;;;;;;13.37;6.27;;;11.00;99.90;;;;;;5254638;28;20242;-68
2021/10/18 07:15:50;;;;;;;11.77;6.83;;;10.70;99.90;;;;;;5270215;28;20273;-67
2021/10/18 07:18:22;;;;;;;12.17;6.60;;;10.50;99.90;;;;;;5260089;28;20232;-68
2021/10/18 07:20:58;;;;;;;10.13;6.70;;;10.20;99.90;;;;;;5257128;28;20230;-64
2021/10/18 07:23:30;;;;;;;10.30;7.17;;;10.10;99.90;;;;;;5251229;28;20237;-67
2021/10/18 07:26:07;;;;;;;13.83;7.20;;;10.00;99.90;;;;;;5252039;28;20522;-64
2021/10/18 07:28:40;;;;;;;12.47;7.03;;;9.80;99.90;;;;;;5266807;28;20529;-66
2021/10/18 07:31:13;;;;;;;12.20;6.53;;;9.60;99.90;;;;;;5260620;28;20197;-63
2021/10/18 07:33:45;;;;;;;11.97;6.30;;;9.50;99.90;;;;;;5266583;28;20221;-62
2021/10/18 07:36:27;;;;;;;10.30;5.73;;;9.40;99.90;;;;;;5263746;28;20237;-64
2021/10/18 07:39:05;;;;;;;10.50;6.20;;;9.40;99.90;;;;;;5270532;28;20228;-63
2021/10/18 07:41:37;;;;;;;10.53;6.57;;;9.30;99.90;;;;;;5270354;28;20214;-63
2021/10/18 07:44:09;;;;;;;10.60;6.07;;;9.30;99.90;;;;;;5269143;28;20239;-64
2021/10/18 07:46:41;;;;;;;11.87;6.07;;;9.40;99.90;;;;;;5268778;28;20204;-63
2021/10/18 07:49:14;;;;;;;10.60;5.63;;;9.40;99.90;;;;;;5260008;28;20571;-63
2021/10/18 07:51:46;;;;;;;15.23;6.27;;;9.50;99.90;;;;;;5250561;28;20208;-63
2021/10/18 07:54:18;;;;;;;11.03;5.57;;;9.50;99.90;;;;;;5250522;28;20628;-65
2021/10/18 07:56:53;;;;;;;9.17;5.63;;;9.70;99.90;;;;;;5249690;28;20209;-63
2021/10/18 07:59:25;;;;;;;10.30;5.70;;;9.80;99.90;;;;;;5250055;28;20232;-66
2021/10/18 08:01:59;;;;;;;11.30;5.80;;;9.90;99.90;;;;;;5247090;28;20225;-63
2021/10/18 08:04:31;;;;;;;9.17;5.60;;;10.00;99.90;;;;;;5249649;28;20240;-64
2021/10/18 08:07:03;;;;;;;10.80;4.80;;;10.10;99.90;;;;;;5250482;28;20299;-64
2021/10/18 08:09:35;;;;;;;10.83;4.43;;;10.20;99.90;;;;;;5250064;28;20275;-64
2021/10/18 08:12:07;;;;;;;6.90;3.53;;;10.30;99.90;;;;;;5248905;28;20205;-64
2021/10/18 08:14:42;;;;;;;9.07;4.60;;;10.30;99.90;;;;;;5249774;28;20250;-61
2021/10/18 08:17:14;;;;;;;10.40;4.97;;;10.40;99.90;;;;;;5250070;28;20214;-62
2021/10/18 08:19:46;;;;;;;8.53;4.90;;;10.50;99.90;;;;;;5249642;28;20315;-65
2021/10/18 08:22:20;;;;;;;11.00;4.97;;;10.60;99.90;;;;;;5249859;28;20319;-63
2021/10/18 08:24:54;;;;;;;8.93;4.80;;;10.70;99.90;;;;;;5249845;28;20250;-60
2021/10/18 08:27:26;;;;;;;9.00;4.80;;;10.80;99.90;;;;;;5249172;28;20195;-60
2021/10/18 08:29:58;;;;;;;8.80;4.57;;;10.80;99.90;;;;;;5250253;28;20568;-59
2021/10/18 08:32:31;;;;;;;8.93;4.23;;;10.70;99.90;;;;;;5248987;28;20312;-61
2021/10/18 08:35:06;;;;;;;9.27;3.97;;;10.80;99.90;;;;;;5249371;28;20311;-62
2021/10/18 08:40:36;;;;;;;6.40;4.03;;;10.80;99.90;;;;;;5249630;28;20265;-62
2021/10/18 08:46:00;;;;;;;9.73;3.73;;;11.00;99.90;;;;;;5238437;28;20529;-59
2021/10/18 08:48:54;;;;;;;5.27;2.70;;;11.10;99.90;;;;;;5248877;28;20276;-62
2021/10/18 08:51:27;;;;;;;7.10;2.63;;;11.00;99.90;;;;;;5249324;28;20299;-58
2021/10/18 08:53:59;;;;;;;7.47;3.43;;;11.00;99.90;;;;;;5249751;28;20254;-62
2021/10/18 08:56:50;;;;;;;7.13;2.83;;;11.10;99.90;;;;;;5249724;28;20598;-60
2021/10/18 08:59:24;;;;;;;5.40;3.20;;;11.20;99.90;;;;;;5248327;28;20204;-66
2021/10/18 09:01:58;;;;;;;5.77;2.83;;;11.20;99.90;;;;;;5239943;28;20656;-71
2021/10/18 09:04:40;;;;;;;4.93;2.90;;;11.20;99.90;;;;;;5250154;28;20210;-69
2021/10/18 09:07:17;;;;;;;4.70;2.43;;;11.30;99.90;;;;;;5249470;28;20229;-67
2021/10/18 09:09:53;;;;;;;5.50;2.63;;;11.30;99.90;;;;;;5248923;28;20220;-68
2021/10/18 09:12:28;;;;;;;3.60;1.80;;;11.20;99.90;;;;;;5254786;28;20228;-69
2021/10/18 09:15:17;;;;;;;5.93;1.67;;;11.20;99.90;;;;;;5254242;28;20192;-69
2021/10/18 09:17:56;;;;;;;4.77;1.80;;;11.20;99.90;;;;;;5253779;28;20578;-69
2021/10/18 09:20:32;;;;;;;4.60;2.00;;;11.10;99.90;;;;;;5254637;28;20225;-70
2021/10/18 09:23:28;;;;;;;2.47;1.50;;;11.10;99.90;;;;;;5254705;28;20243;-69
2021/10/18 09:26:15;;;;;;;2.50;1.47;;;11.10;99.90;;;;;;5254002;28;20285;-66
2021/10/18 09:28:53;;;;;;;3.53;1.40;;;11.00;99.90;;;;;;5252231;28;20192;-68
2021/10/18 09:31:27;;;;;;;3.37;1.50;;;11.20;99.90;;;;;;5253453;28;20185;-66
2021/10/18 09:34:10;;;;;;;2.60;1.10;;;11.10;99.90;;;;;;5253978;28;20259;-69
2021/10/18 09:36:44;;;;;;;4.17;1.00;;;11.00;99.90;;;;;;5253005;28;20189;-62
2021/10/18 09:39:29;;;;;;;1.63;0.70;;;10.90;99.90;;;;;;5253616;28;20644;-67
2021/10/18 09:42:00;;;;;;;1.90;0.77;;;10.70;99.90;;;;;;5252571;28;20508;-69
2021/10/18 09:44:55;;;;;;;1.40;0.70;;;10.70;99.90;;;;;;5254517;28;20185;-68
2021/10/18 10:51:57;;;;;;;3.60;0.70;;;11.50;99.90;;;;;;5252162;28;20220;-68
2021/10/18 10:54:44;;;;;;;2.60;0.83;;;11.50;99.90;;;;;;5252074;28;20291;-70
2021/10/18 10:57:31;;;;;;;3.00;1.20;;;11.50;99.90;;;;;;5250417;28;20193;-70
2021/10/18 11:00:03;;;;;;;3.03;0.90;;;11.50;99.90;;;;;;5250195;28;20237;-69
2021/10/18 11:02:35;;;;;;;1.37;0.80;;;11.50;99.90;;;;;;5251237;28;20205;-70
2021/10/18 11:05:14;;;;;;;1.87;1.00;;;11.60;99.90;;;;;;5250945;28;20260;-71
2021/10/18 11:07:54;;;;;;;0.87;0.67;;;11.60;99.90;;;;;;5251062;28;20197;-67
2021/10/18 11:10:27;;;;;;;1.87;1.00;;;11.60;99.90;;;;;;5250772;28;20236;-66
2021/10/18 11:13:07;;;;;;;4.70;0.73;;;11.70;99.90;;;;;;5251067;28;20201;-66
2021/10/18 11:15:39;;;;;;;3.27;0.80;;;11.80;99.90;;;;;;5249779;28;20243;-66
2021/10/18 11:18:24;;;;;;;2.07;0.80;;;12.00;99.90;;;;;;5251437;28;20204;-67
2021/10/18 11:20:55;;;;;;;2.10;0.83;;;12.20;99.90;;;;;;5250243;28;20239;-69
2021/10/18 11:23:28;;;;;;;2.00;0.80;;;12.20;99.90;;;;;;5251263;28;20211;-64
2021/10/18 11:26:00;;;;;;;2.73;0.93;;;12.30;99.90;;;;;;5252156;28;20225;-67
2021/10/18 11:28:32;;;;;;;2.30;0.80;;;12.30;99.90;;;;;;5251886;28;20204;-68
2021/10/18 11:31:09;;;;;;;1.23;0.60;;;12.30;99.90;;;;;;5251926;28;20229;-68
2021/10/18 11:34:19;;;;;;;3.07;0.70;;;12.20;99.90;;;;;;5250856;28;20212;-65
2021/10/18 11:36:56;;;;;;;1.10;0.50;;;12.10;99.90;;;;;;5252238;28;20242;-73
2021/10/18 11:39:30;;;;;;;2.40;0.93;;;11.90;99.90;;;;;;5251608;28;20189;-69
2021/10/18 11:42:09;;;;;;;2.23;1.00;;;11.80;99.90;;;;;;5249172;28;20229;-69
2021/10/18 11:44:41;;;;;;;3.13;0.93;;;11.70;99.90;;;;;;5250534;28;20205;-71
2021/10/18 11:47:34;;;;;;;3.07;1.00;;;11.80;99.90;;;;;;5250514;28;20686;-67
2021/10/18 11:50:11;;;;;;;4.87;1.10;;;11.90;99.90;;;;;;5249831;28;20597;-68
2021/10/18 11:52:53;;;;;;;3.83;0.90;;;11.90;99.90;;;;;;5250711;28;20232;-71
2021/10/18 11:55:29;;;;;;;3.73;0.80;;;11.80;99.90;;;;;;5249556;28;20207;-65
2021/10/18 11:58:05;;;;;;;2.10;0.73;;;11.80;99.90;;;;;;5250926;28;20224;-68
2021/10/18 12:00:41;;;;;;;2.53;0.97;;;11.80;99.90;;;;;;5250279;28;20525;-66
2021/10/18 12:03:19;;;;;;;1.37;0.73;;;11.90;99.90;;;;;;5249889;28;20250;-62
2021/10/18 12:05:54;;;;;;;1.40;0.90;;;11.80;99.90;;;;;;5250425;28;20513;-58
2021/10/18 12:08:31;;;;;;;2.27;0.90;;;11.80;99.90;;;;;;5248998;28;20291;-61
2021/10/18 12:11:06;;;;;;;2.33;0.93;;;11.80;99.90;;;;;;5249230;28;20688;-65
2021/10/18 12:13:40;;;;;;;3.00;0.80;;;11.80;99.90;;;;;;5250162;28;20228;-67
2021/10/18 12:16:19;;;;;;;2.93;1.13;;;11.80;99.90;;;;;;5233214;28;20227;-67
2021/10/18 12:19:01;;;;;;;3.87;1.10;;;11.80;99.90;;;;;;5249130;28;20666;-68
2021/10/18 12:21:38;;;;;;;3.60;1.20;;;11.80;99.90;;;;;;5248941;28;20316;-66
2021/10/18 12:24:15;;;;;;;2.43;0.83;;;11.90;99.90;;;;;;5250037;28;20235;-63
2021/10/18 12:26:54;;;;;;;4.00;1.00;;;11.90;99.90;;;;;;5250280;28;20307;-66
2021/10/18 12:29:26;;;;;;;2.37;1.00;;;11.80;99.90;;;;;;5249844;28;20276;-67
2021/10/18 12:32:07;;;;;;;2.80;1.10;;;11.80;99.90;;;;;;5250962;28;20300;-64
2021/10/18 12:34:38;;;;;;;4.57;1.00;;;11.70;99.90;;;;;;5250603;28;20315;-63
2021/10/18 12:37:12;;;;;;;2.17;1.07;;;11.60;99.90;;;;;;5251151;28;20212;-66
2021/10/18 12:40:02;;;;;;;2.93;1.30;;;11.50;99.90;;;;;;5250081;28;20299;-65
2021/10/18 12:42:34;;;;;;;3.17;0.93;;;11.50;99.90;;;;;;5250358;28;20217;-66
2021/10/18 12:45:13;;;;;;;2.07;1.40;;;11.60;99.90;;;;;;5249330;28;20529;-62
2021/10/18 12:47:51;;;;;;;2.63;1.17;;;11.60;99.90;;;;;;5249526;28;20200;-69
2021/10/18 12:50:25;;;;;;;2.23;1.17;;;11.60;99.90;;;;;;5249747;28;20268;-63
2021/10/18 12:53:05;;;;;;;3.17;1.57;;;11.60;99.90;;;;;;5249748;28;20295;-66
2021/10/18 12:55:41;;;;;;;2.47;1.13;;;11.50;99.90;;;;;;5246317;28;20196;-68
2021/10/18 12:58:18;;;;;;;4.77;1.40;;;11.50;99.90;;;;;;5249167;28;20205;-63
2021/10/18 13:00:51;;;;;;;5.80;1.30;;;11.50;99.90;;;;;;5249545;28;20219;-65
2021/10/18 13:03:23;;;;;;;3.10;0.90;;;11.50;99.90;;;;;;5248238;28;20631;-62
2021/10/18 13:05:57;;;;;;;1.80;0.80;;;11.50;99.90;;;;;;5248984;28;20193;-69
2021/10/18 13:08:32;;;;;;;3.27;1.30;;;11.60;99.90;;;;;;5249009;28;20211;-70
2021/10/18 13:11:04;;;;;;;3.93;1.10;;;11.50;99.90;;;;;;5249931;28;20583;-65
2021/10/18 13:13:36;;;;;;;4.87;1.07;;;11.50;99.90;;;;;;5249372;28;20560;-68
2021/10/18 13:16:08;;;;;;;2.57;1.33;;;11.50;99.90;;;;;;5249989;28;20603;-66
2021/10/18 13:18:40;;;;;;;2.97;1.30;;;11.50;99.90;;;;;;5249029;28;20288;-68
2021/10/18 13:21:13;;;;;;;3.70;1.70;;;11.40;99.90;;;;;;5249377;28;20216;-67
2021/10/18 13:23:45;;;;;;;4.17;1.80;;;11.40;99.90;;;;;;5249752;28;20189;-73
2021/10/18 13:26:17;;;;;;;3.90;1.40;;;11.30;99.90;;;;;;5249996;28;20631;-67
2021/10/18 13:28:49;;;;;;;4.77;1.50;;;11.20;99.90;;;;;;5250027;28;20232;-73
2021/10/18 13:31:21;;;;;;;4.10;2.03;;;11.10;99.90;;;;;;5250260;28;20545;-63
2021/10/18 13:33:53;;;;;;;3.70;1.77;;;11.10;99.90;;;;;;5249454;28;20201;-68
2021/10/18 13:36:25;;;;;;;3.83;1.93;;;11.00;99.90;;;;;;5248241;28;20243;-69
2021/10/18 13:39:01;;;;;;;7.50;2.00;;;10.90;99.90;;;;;;5248584;28;20197;-66
2021/10/18 13:41:41;;;;;;;4.00;1.60;;;10.90;99.90;;;;;;5249354;28;20259;-68
2021/10/18 13:44:13;;;;;;;3.73;1.80;;;10.80;99.90;;;;;;5248644;28;20292;-64
2021/10/18 13:46:45;;;;;;;6.00;1.57;;;10.80;99.90;;;;;;5248990;28;20228;-66
2021/10/18 13:49:17;;;;;;;3.27;1.60;;;10.70;99.90;;;;;;5249510;28;20215;-67
2021/10/18 13:51:51;;;;;;;3.67;1.87;;;10.70;99.90;;;;;;5249172;28;20531;-66
2021/10/18 13:54:23;;;;;;;5.90;2.63;;;10.70;99.90;;;;;;5249803;28;20205;-69
2021/10/18 13:56:57;;;;;;;4.67;2.10;;;10.60;99.90;;;;;;5249880;28;20237;-65
2021/10/18 13:59:29;;;;;;;3.20;2.00;;;10.60;99.90;;;;;;5253433;28;20515;-66
2021/10/18 14:02:05;;;;;;;5.00;2.40;;;10.50;99.90;;;;;;5252355;28;20262;-67
2021/10/18 14:04:37;;;;;;;3.43;1.90;;;10.50;99.90;;;;;;5253483;28;20200;-68
2021/10/18 14:07:10;;;;;;;3.27;1.20;;;10.50;99.90;;;;;;5251627;28;20227;-69
2021/10/18 14:09:43;;;;;;;2.77;1.20;;;10.50;99.90;;;;;;5251812;28;20566;-66
2021/10/18 14:12:16;;;;;;;5.67;1.50;;;10.50;99.90;;;;;;5252753;28;20355;-67
2021/10/18 14:14:50;;;;;;;3.23;1.47;;;10.40;99.90;;;;;;5252859;28;20228;-68
2021/10/18 14:17:24;;;;;;;2.53;1.17;;;10.40;99.90;;;;;;5252786;28;20304;-68
2021/10/18 14:19:56;;;;;;;3.80;1.00;;;10.40;99.90;;;;;;5253118;28;20205;-63
2021/10/18 14:22:30;;;;;;;4.80;1.03;;;10.40;99.90;;;;;;5257384;28;20228;-65
2021/10/18 14:25:04;;;;;;;4.27;1.30;;;10.40;99.90;;;;;;5275323;28;20200;-71
2021/10/18 14:27:38;;;;;;;2.67;1.20;;;10.30;99.90;;;;;;5266360;28;20225;-66
2021/10/18 14:30:14;;;;;;;3.30;1.43;;;10.30;99.90;;;;;;5254489;28;20269;-66
2021/10/18 14:32:46;;;;;;;4.43;1.50;;;10.30;99.90;;;;;;5253651;28;20232;-66
2021/10/18 14:35:18;;;;;;;2.43;1.37;;;10.20;99.90;;;;;;5252764;28;20541;-62